This is the latest recevied weather packets stored in our database for station/object DH5WR-10. If no packets are shown the sender has not sent any weather packets the latest 10 day(s).
| Time | Temp. | Humidity | Pressure | Rain* | Wind** | Luminosity | Snow |
|---|---|---|---|---|---|---|---|
| 1777756045 | 15° C | 42% | 1018.5 hPa | - | - | - | - |
| 1777755145 | 15° C | 45% | 1018.6 hPa | - | - | - | - |
| 1777754245 | 15° C | 44% | 1018.7 hPa | - | - | - | - |
| 1777753345 | 15.56° C | 43% | 1018.8 hPa | - | - | - | - |
| 1777752445 | 15.56° C | 41% | 1018.8 hPa | - | - | - | - |
| 1777751545 | 15.56° C | 44% | 1018.9 hPa | - | - | - | - |
| 1777750644 | 16.11° C | 41% | 1018.8 hPa | - | - | - | - |
| 1777749744 | 16.67° C | 40% | 1018.8 hPa | - | - | - | - |
| 1777748844 | 17.22° C | 40% | 1018.8 hPa | - | - | - | - |
| 1777747944 | 18.33° C | 36% | 1018.6 hPa | - | - | - | - |
| 1777747044 | 19.44° C | 31% | 1018.7 hPa | - | - | - | - |
| 1777746144 | 20° C | 31% | 1018.5 hPa | - | - | - | - |
| 1777745244 | 21.11° C | 29% | 1018.5 hPa | - | - | - | - |
| 1777744343 | 21.11° C | 28% | 1018.5 hPa | - | - | - | - |
| 1777743443 | 21.67° C | 27% | 1018.6 hPa | - | - | - | - |
| 1777742543 | 22.22° C | 27% | 1018.6 hPa | - | - | - | - |
| 1777741643 | 22.22° C | 26% | 1018.7 hPa | - | - | - | - |
| 1777740743 | 22.22° C | 27% | 1018.7 hPa | - | - | - | - |
| 1777739843 | 22.22° C | 28% | 1018.8 hPa | - | - | - | - |
| 1777738943 | 22.78° C | 27% | 1019.1 hPa | - | - | - | - |
| 1777738042 | 22.78° C | 27% | 1019.2 hPa | - | - | - | - |
| 1777737142 | 22.78° C | 27% | 1019.3 hPa | - | - | - | - |
| 1777736242 | 23.33° C | 26% | 1019.4 hPa | - | - | - | - |
| 1777735342 | 23.33° C | 25% | 1019.5 hPa | - | - | - | - |
| 1777734442 | 23.33° C | 26% | 1019.7 hPa | - | - | - | - |
* Rain since midnight (hover to see other rain measurements)
** Current wind speed in m/s (hover to see current wind gust speed)